sensor_id;sensor_type;location;lat;lon;timestamp;temperature;humidity
4548;DHT22;2286;51.570;7.090;2023-06-19T00:00:42;23.60;1.00
4548;DHT22;2286;51.570;7.090;2023-06-19T00:03:08;23.50;1.00
4548;DHT22;2286;51.570;7.090;2023-06-19T00:05:35;23.40;1.00
4548;DHT22;2286;51.570;7.090;2023-06-19T00:08:04;23.40;1.00
4548;DHT22;2286;51.570;7.090;2023-06-19T00:10:32;23.30;1.00
4548;DHT22;2286;51.570;7.090;2023-06-19T00:12:58;23.40;1.00
4548;DHT22;2286;51.570;7.090;2023-06-19T00:15:25;23.40;1.00
4548;DHT22;2286;51.570;7.090;2023-06-19T00:17:55;23.30;1.00
4548;DHT22;2286;51.570;7.090;2023-06-19T00:20:22;23.20;1.00
4548;DHT22;2286;51.570;7.090;2023-06-19T00:22:49;23.20;1.00
4548;DHT22;2286;51.570;7.090;2023-06-19T00:25:18;23.10;1.00
4548;DHT22;2286;51.570;7.090;2023-06-19T00:27:46;22.90;1.10
4548;DHT22;2286;51.570;7.090;2023-06-19T00:30:13;22.90;2.70
4548;DHT22;2286;51.570;7.090;2023-06-19T00:32:40;22.80;3.20
4548;DHT22;2286;51.570;7.090;2023-06-19T00:35:13;22.70;4.90
4548;DHT22;2286;51.570;7.090;2023-06-19T00:37:40;22.60;6.10
4548;DHT22;2286;51.570;7.090;2023-06-19T00:40:15;22.60;7.70
4548;DHT22;2286;51.570;7.090;2023-06-19T00:42:44;22.50;8.30
4548;DHT22;2286;51.570;7.090;2023-06-19T00:45:10;22.40;10.20
4548;DHT22;2286;51.570;7.090;2023-06-19T00:47:37;22.30;12.90
4548;DHT22;2286;51.570;7.090;2023-06-19T00:50:05;22.30;13.30
4548;DHT22;2286;51.570;7.090;2023-06-19T00:52:33;22.20;14.50
4548;DHT22;2286;51.570;7.090;2023-06-19T00:55:01;22.20;15.40
4548;DHT22;2286;51.570;7.090;2023-06-19T00:57:29;22.10;26.90
4548;DHT22;2286;51.570;7.090;2023-06-19T00:59:58;22.00;19.60
4548;DHT22;2286;51.570;7.090;2023-06-19T01:02:25;21.90;22.60
4548;DHT22;2286;51.570;7.090;2023-06-19T01:04:53;21.80;24.40
4548;DHT22;2286;51.570;7.090;2023-06-19T01:07:27;21.80;26.60
4548;DHT22;2286;51.570;7.090;2023-06-19T01:09:59;21.70;31.30
4548;DHT22;2286;51.570;7.090;2023-06-19T01:12:32;21.60;34.30
4548;DHT22;2286;51.570;7.090;2023-06-19T01:15:03;21.60;36.60
4548;DHT22;2286;51.570;7.090;2023-06-19T01:17:31;21.60;41.40
4548;DHT22;2286;51.570;7.090;2023-06-19T01:19:59;21.60;44.80
4548;DHT22;2286;51.570;7.090;2023-06-19T01:22:28;21.60;46.20
4548;DHT22;2286;51.570;7.090;2023-06-19T01:24:54;21.60;48.10
4548;DHT22;2286;51.570;7.090;2023-06-19T01:27:22;21.60;49.20
4548;DHT22;2286;51.570;7.090;2023-06-19T01:29:50;21.60;50.70
4548;DHT22;2286;51.570;7.090;2023-06-19T01:32:20;21.60;52.20
4548;DHT22;2286;51.570;7.090;2023-06-19T01:34:49;21.60;54.10
4548;DHT22;2286;51.570;7.090;2023-06-19T01:37:18;21.60;54.50
4548;DHT22;2286;51.570;7.090;2023-06-19T01:39:47;21.50;56.90
4548;DHT22;2286;51.570;7.090;2023-06-19T01:42:15;21.40;61.60
4548;DHT22;2286;51.570;7.090;2023-06-19T01:44:42;21.30;73.70
4548;DHT22;2286;51.570;7.090;2023-06-19T01:47:10;21.10;84.80
4548;DHT22;2286;51.570;7.090;2023-06-19T01:49:37;21.10;94.70
4548;DHT22;2286;51.570;7.090;2023-06-19T01:52:05;21.00;99.90
4548;DHT22;2286;51.570;7.090;2023-06-19T01:54:32;21.00;99.90
4548;DHT22;2286;51.570;7.090;2023-06-19T01:57:00;20.90;99.90
4548;DHT22;2286;51.570;7.090;2023-06-19T01:59:27;21.00;99.90
4548;DHT22;2286;51.570;7.090;2023-06-19T02:01:53;20.90;99.90
4548;DHT22;2286;51.570;7.090;2023-06-19T02:04:20;20.80;99.90
4548;DHT22;2286;51.570;7.090;2023-06-19T02:06:47;20.80;99.90
4548;DHT22;2286;51.570;7.090;2023-06-19T02:09:14;20.70;99.90
4548;DHT22;2286;51.570;7.090;2023-06-19T02:11:41;20.70;99.90
4548;DHT22;2286;51.570;7.090;2023-06-19T02:14:10;20.70;99.90
4548;DHT22;2286;51.570;7.090;2023-06-19T02:16:37;20.70;99.90
4548;DHT22;2286;51.570;7.090;2023-06-19T02:19:04;20.70;99.90
4548;DHT22;2286;51.570;7.090;2023-06-19T02:21:30;20.80;99.90
4548;DHT22;2286;51.570;7.090;2023-06-19T02:23:58;20.90;99.90
4548;DHT22;2286;51.570;7.090;2023-06-19T02:26:24;20.90;99.90
4548;DHT22;2286;51.570;7.090;2023-06-19T02:28:54;20.90;99.90
4548;DHT22;2286;51.570;7.090;2023-06-19T02:31:22;20.90;99.90
4548;DHT22;2286;51.570;7.090;2023-06-19T02:33:49;20.90;99.90
4548;DHT22;2286;51.570;7.090;2023-06-19T02:36:16;20.90;99.90
4548;DHT22;2286;51.570;7.090;2023-06-19T02:38:45;20.90;99.90
4548;DHT22;2286;51.570;7.090;2023-06-19T02:41:12;20.90;99.90
4548;DHT22;2286;51.570;7.090;2023-06-19T02:43:40;20.80;99.90
4548;DHT22;2286;51.570;7.090;2023-06-19T02:46:07;20.80;99.90
4548;DHT22;2286;51.570;7.090;2023-06-19T02:48:36;20.70;99.90
4548;DHT22;2286;51.570;7.090;2023-06-19T02:51:03;20.70;99.90
4548;DHT22;2286;51.570;7.090;2023-06-19T02:53:30;20.80;99.90
4548;DHT22;2286;51.570;7.090;2023-06-19T02:55:57;20.90;99.90
4548;DHT22;2286;51.570;7.090;2023-06-19T02:58:24;21.00;99.90
4548;DHT22;2286;51.570;7.090;2023-06-19T03:00:52;21.10;99.90
4548;DHT22;2286;51.570;7.090;2023-06-19T03:03:19;21.30;99.90
4548;DHT22;2286;51.570;7.090;2023-06-19T03:05:49;21.50;99.90
4548;DHT22;2286;51.570;7.090;2023-06-19T03:08:17;21.80;79.80
4548;DHT22;2286;51.570;7.090;2023-06-19T03:10:44;21.90;71.10
4548;DHT22;2286;51.570;7.090;2023-06-19T03:13:12;22.00;67.30
4548;DHT22;2286;51.570;7.090;2023-06-19T03:15:39;22.00;63.60
4548;DHT22;2286;51.570;7.090;2023-06-19T03:18:06;22.10;59.40
4548;DHT22;2286;51.570;7.090;2023-06-19T03:20:35;22.10;58.00
4548;DHT22;2286;51.570;7.090;2023-06-19T03:23:03;22.30;54.60
4548;DHT22;2286;51.570;7.090;2023-06-19T03:25:30;22.40;53.70
4548;DHT22;2286;51.570;7.090;2023-06-19T03:28:00;22.40;53.70
4548;DHT22;2286;51.570;7.090;2023-06-19T03:30:28;22.40;74.00
4548;DHT22;2286;51.570;7.090;2023-06-19T03:32:55;22.30;55.40
4548;DHT22;2286;51.570;7.090;2023-06-19T03:35:22;22.30;55.60
4548;DHT22;2286;51.570;7.090;2023-06-19T03:37:49;22.30;57.70
4548;DHT22;2286;51.570;7.090;2023-06-19T03:40:18;22.20;59.90
4548;DHT22;2286;51.570;7.090;2023-06-19T03:42:45;22.10;62.80
4548;DHT22;2286;51.570;7.090;2023-06-19T03:45:12;22.10;67.00
4548;DHT22;2286;51.570;7.090;2023-06-19T03:47:39;22.10;73.10
4548;DHT22;2286;51.570;7.090;2023-06-19T03:50:08;22.00;76.40
4548;DHT22;2286;51.570;7.090;2023-06-19T03:52:35;22.00;81.50
4548;DHT22;2286;51.570;7.090;2023-06-19T03:55:03;22.00;86.30
4548;DHT22;2286;51.570;7.090;2023-06-19T03:57:32;22.00;91.50
4548;DHT22;2286;51.570;7.090;2023-06-19T03:59:59;22.00;94.00
4548;DHT22;2286;51.570;7.090;2023-06-19T04:02:26;22.00;98.40
4548;DHT22;2286;51.570;7.090;2023-06-19T04:04:53;22.00;99.90
4548;DHT22;2286;51.570;7.090;2023-06-19T04:07:20;22.00;99.90
4548;DHT22;2286;51.570;7.090;2023-06-19T04:09:47;22.00;99.90
4548;DHT22;2286;51.570;7.090;2023-06-19T04:12:14;21.90;99.90
4548;DHT22;2286;51.570;7.090;2023-06-19T04:14:43;21.80;99.90
4548;DHT22;2286;51.570;7.090;2023-06-19T04:17:10;21.80;99.90
4548;DHT22;2286;51.570;7.090;2023-06-19T04:19:37;21.70;99.90
4548;DHT22;2286;51.570;7.090;2023-06-19T04:22:05;21.70;99.90
4548;DHT22;2286;51.570;7.090;2023-06-19T04:24:32;21.70;99.90
4548;DHT22;2286;51.570;7.090;2023-06-19T04:26:59;21.60;99.90
4548;DHT22;2286;51.570;7.090;2023-06-19T04:29:26;21.60;99.90
4548;DHT22;2286;51.570;7.090;2023-06-19T04:31:59;21.60;99.90
4548;DHT22;2286;51.570;7.090;2023-06-19T04:34:28;21.50;99.90
4548;DHT22;2286;51.570;7.090;2023-06-19T04:36:56;21.50;99.90
4548;DHT22;2286;51.570;7.090;2023-06-19T04:39:24;21.50;99.90
4548;DHT22;2286;51.570;7.090;2023-06-19T04:41:51;21.40;99.90
4548;DHT22;2286;51.570;7.090;2023-06-19T04:44:18;21.40;99.90
4548;DHT22;2286;51.570;7.090;2023-06-19T04:46:45;21.30;99.90
4548;DHT22;2286;51.570;7.090;2023-06-19T04:49:14;21.20;99.90
4548;DHT22;2286;51.570;7.090;2023-06-19T04:51:41;21.20;99.90
4548;DHT22;2286;51.570;7.090;2023-06-19T04:54:08;21.30;99.90
4548;DHT22;2286;51.570;7.090;2023-06-19T04:56:35;21.30;99.90
4548;DHT22;2286;51.570;7.090;2023-06-19T04:59:02;21.20;99.90
4548;DHT22;2286;51.570;7.090;2023-06-19T05:01:29;21.10;99.90
4548;DHT22;2286;51.570;7.090;2023-06-19T05:03:57;21.10;99.90
4548;DHT22;2286;51.570;7.090;2023-06-19T05:06:26;21.10;99.90
4548;DHT22;2286;51.570;7.090;2023-06-19T05:08:53;21.00;99.90
4548;DHT22;2286;51.570;7.090;2023-06-19T05:11:20;21.00;99.90
4548;DHT22;2286;51.570;7.090;2023-06-19T05:13:47;21.00;99.90
4548;DHT22;2286;51.570;7.090;2023-06-19T05:16:14;20.90;99.90
4548;DHT22;2286;51.570;7.090;2023-06-19T05:18:42;20.90;99.90
4548;DHT22;2286;51.570;7.090;2023-06-19T05:21:09;20.90;99.90
4548;DHT22;2286;51.570;7.090;2023-06-19T05:23:38;20.90;99.90
4548;DHT22;2286;51.570;7.090;2023-06-19T05:26:05;21.00;99.90
4548;DHT22;2286;51.570;7.090;2023-06-19T05:28:32;21.00;99.90
4548;DHT22;2286;51.570;7.090;2023-06-19T05:30:59;21.00;99.90
4548;DHT22;2286;51.570;7.090;2023-06-19T05:33:26;21.10;99.90
4548;DHT22;2286;51.570;7.090;2023-06-19T05:35:53;21.20;99.90
4548;DHT22;2286;51.570;7.090;2023-06-19T05:38:21;21.50;99.90
4548;DHT22;2286;51.570;7.090;2023-06-19T05:40:50;21.50;99.90
4548;DHT22;2286;51.570;7.090;2023-06-19T05:43:18;21.50;99.90
4548;DHT22;2286;51.570;7.090;2023-06-19T05:45:45;21.50;99.90
4548;DHT22;2286;51.570;7.090;2023-06-19T05:48:12;21.60;99.90
4548;DHT22;2286;51.570;7.090;2023-06-19T05:50:40;21.50;99.90
4548;DHT22;2286;51.570;7.090;2023-06-19T05:53:07;21.60;99.90
4548;DHT22;2286;51.570;7.090;2023-06-19T05:55:34;21.70;99.90
4548;DHT22;2286;51.570;7.090;2023-06-19T05:58:03;21.80;99.90
4548;DHT22;2286;51.570;7.090;2023-06-19T06:00:30;21.80;99.90
4548;DHT22;2286;51.570;7.090;2023-06-19T06:02:57;21.70;99.90
4548;DHT22;2286;51.570;7.090;2023-06-19T06:05:26;21.50;99.90
4548;DHT22;2286;51.570;7.090;2023-06-19T06:07:53;21.40;99.90
4548;DHT22;2286;51.570;7.090;2023-06-19T06:10:21;21.30;99.90
4548;DHT22;2286;51.570;7.090;2023-06-19T06:12:49;21.20;99.90
4548;DHT22;2286;51.570;7.090;2023-06-19T06:15:17;21.30;99.90
4548;DHT22;2286;51.570;7.090;2023-06-19T06:17:45;21.30;99.90
4548;DHT22;2286;51.570;7.090;2023-06-19T06:20:12;21.20;99.90
4548;DHT22;2286;51.570;7.090;2023-06-19T06:22:39;21.30;99.90
4548;DHT22;2286;51.570;7.090;2023-06-19T06:25:07;21.40;99.90
4548;DHT22;2286;51.570;7.090;2023-06-19T06:27:35;21.40;99.90
4548;DHT22;2286;51.570;7.090;2023-06-19T06:30:04;21.30;99.90
4548;DHT22;2286;51.570;7.090;2023-06-19T06:32:32;21.40;99.90
4548;DHT22;2286;51.570;7.090;2023-06-19T06:35:00;21.40;99.90
4548;DHT22;2286;51.570;7.090;2023-06-19T06:37:27;21.50;99.90
4548;DHT22;2286;51.570;7.090;2023-06-19T06:39:54;21.50;99.90
4548;DHT22;2286;51.570;7.090;2023-06-19T06:42:21;21.50;99.90
4548;DHT22;2286;51.570;7.090;2023-06-19T06:44:48;21.60;99.90
4548;DHT22;2286;51.570;7.090;2023-06-19T06:47:15;21.80;99.90
4548;DHT22;2286;51.570;7.090;2023-06-19T06:49:44;21.70;99.90
4548;DHT22;2286;51.570;7.090;2023-06-19T06:52:11;21.60;99.90
4548;DHT22;2286;51.570;7.090;2023-06-19T06:54:39;21.60;99.90
4548;DHT22;2286;51.570;7.090;2023-06-19T06:57:06;21.70;99.90
4548;DHT22;2286;51.570;7.090;2023-06-19T06:59:33;21.70;99.90
4548;DHT22;2286;51.570;7.090;2023-06-19T07:02:01;21.70;99.90
4548;DHT22;2286;51.570;7.090;2023-06-19T07:04:28;21.80;99.90
4548;DHT22;2286;51.570;7.090;2023-06-19T07:06:57;21.90;99.90
4548;DHT22;2286;51.570;7.090;2023-06-19T07:09:24;21.80;99.90
4548;DHT22;2286;51.570;7.090;2023-06-19T07:11:52;21.80;99.90
4548;DHT22;2286;51.570;7.090;2023-06-19T07:14:20;21.80;99.90
4548;DHT22;2286;51.570;7.090;2023-06-19T07:16:47;22.00;99.90
4548;DHT22;2286;51.570;7.090;2023-06-19T07:19:14;22.10;99.90
4548;DHT22;2286;51.570;7.090;2023-06-19T07:21:43;22.10;99.90
4548;DHT22;2286;51.570;7.090;2023-06-19T07:24:12;22.10;99.90
4548;DHT22;2286;51.570;7.090;2023-06-19T07:26:39;22.10;99.90
4548;DHT22;2286;51.570;7.090;2023-06-19T07:29:06;21.90;99.90
4548;DHT22;2286;51.570;7.090;2023-06-19T07:31:33;21.80;99.90
4548;DHT22;2286;51.570;7.090;2023-06-19T07:34:00;21.60;99.90
4548;DHT22;2286;51.570;7.090;2023-06-19T07:36:28;21.50;99.90
4548;DHT22;2286;51.570;7.090;2023-06-19T07:38:55;21.50;99.90
4548;DHT22;2286;51.570;7.090;2023-06-19T07:41:24;21.50;99.90
4548;DHT22;2286;51.570;7.090;2023-06-19T07:43:51;21.50;99.90
4548;DHT22;2286;51.570;7.090;2023-06-19T07:46:18;21.60;99.90
4548;DHT22;2286;51.570;7.090;2023-06-19T07:48:45;21.80;99.90
4548;DHT22;2286;51.570;7.090;2023-06-19T07:51:12;21.70;99.90
4548;DHT22;2286;51.570;7.090;2023-06-19T07:53:39;21.60;99.90
4548;DHT22;2286;51.570;7.090;2023-06-19T07:56:06;21.40;99.90
4548;DHT22;2286;51.570;7.090;2023-06-19T07:58:36;21.20;99.90
4548;DHT22;2286;51.570;7.090;2023-06-19T08:01:03;21.10;99.90
4548;DHT22;2286;51.570;7.090;2023-06-19T08:03:30;21.00;99.90
4548;DHT22;2286;51.570;7.090;2023-06-19T08:05:57;21.10;99.90
4548;DHT22;2286;51.570;7.090;2023-06-19T08:08:24;21.30;99.90
4548;DHT22;2286;51.570;7.090;2023-06-19T08:10:51;21.50;99.90
4548;DHT22;2286;51.570;7.090;2023-06-19T08:13:19;21.80;99.90
4548;DHT22;2286;51.570;7.090;2023-06-19T08:15:47;21.90;99.90
4548;DHT22;2286;51.570;7.090;2023-06-19T08:18:14;22.00;99.90
4548;DHT22;2286;51.570;7.090;2023-06-19T08:20:41;22.40;99.90
4548;DHT22;2286;51.570;7.090;2023-06-19T08:23:08;22.70;99.90
4548;DHT22;2286;51.570;7.090;2023-06-19T08:25:35;22.70;99.90
4548;DHT22;2286;51.570;7.090;2023-06-19T08:28:03;22.60;99.90
4548;DHT22;2286;51.570;7.090;2023-06-19T08:30:30;22.60;99.90
4548;DHT22;2286;51.570;7.090;2023-06-19T08:32:58;22.60;99.90
4548;DHT22;2286;51.570;7.090;2023-06-19T08:35:25;22.20;99.90
4548;DHT22;2286;51.570;7.090;2023-06-19T08:37:53;22.00;99.90
4548;DHT22;2286;51.570;7.090;2023-06-19T08:40:20;22.30;99.90
4548;DHT22;2286;51.570;7.090;2023-06-19T08:42:48;22.70;99.90
4548;DHT22;2286;51.570;7.090;2023-06-19T08:45:15;23.10;99.90
4548;DHT22;2286;51.570;7.090;2023-06-19T08:47:44;23.10;99.90
4548;DHT22;2286;51.570;7.090;2023-06-19T08:50:12;22.80;99.90
4548;DHT22;2286;51.570;7.090;2023-06-19T08:52:40;22.80;99.90
4548;DHT22;2286;51.570;7.090;2023-06-19T08:55:07;22.90;99.90
4548;DHT22;2286;51.570;7.090;2023-06-19T08:57:35;23.10;99.90
4548;DHT22;2286;51.570;7.090;2023-06-19T09:00:04;23.40;99.90
4548;DHT22;2286;51.570;7.090;2023-06-19T09:02:43;23.60;99.90
4548;DHT22;2286;51.570;7.090;2023-06-19T09:05:16;23.70;99.90
4548;DHT22;2286;51.570;7.090;2023-06-19T09:07:44;24.10;99.90
4548;DHT22;2286;51.570;7.090;2023-06-19T09:10:14;24.10;99.90
4548;DHT22;2286;51.570;7.090;2023-06-19T09:12:42;24.10;99.90
4548;DHT22;2286;51.570;7.090;2023-06-19T09:15:13;24.00;99.90
4548;DHT22;2286;51.570;7.090;2023-06-19T09:17:40;24.00;99.90
4548;DHT22;2286;51.570;7.090;2023-06-19T09:20:08;24.10;99.90
4548;DHT22;2286;51.570;7.090;2023-06-19T09:22:38;24.00;99.90
4548;DHT22;2286;51.570;7.090;2023-06-19T09:25:07;24.20;99.90
4548;DHT22;2286;51.570;7.090;2023-06-19T09:27:36;24.30;99.90
4548;DHT22;2286;51.570;7.090;2023-06-19T09:30:05;23.90;99.90
4548;DHT22;2286;51.570;7.090;2023-06-19T09:32:34;24.10;99.90
4548;DHT22;2286;51.570;7.090;2023-06-19T09:35:02;24.50;99.00
4548;DHT22;2286;51.570;7.090;2023-06-19T09:37:30;24.70;95.20
4548;DHT22;2286;51.570;7.090;2023-06-19T09:40:00;25.10;92.00
4548;DHT22;2286;51.570;7.090;2023-06-19T09:42:36;25.00;89.50
4548;DHT22;2286;51.570;7.090;2023-06-19T09:45:05;24.70;86.90
4548;DHT22;2286;51.570;7.090;2023-06-19T09:47:36;24.60;90.90
4548;DHT22;2286;51.570;7.090;2023-06-19T09:50:05;24.90;88.10
4548;DHT22;2286;51.570;7.090;2023-06-19T09:52:33;24.70;83.40
4548;DHT22;2286;51.570;7.090;2023-06-19T09:55:03;24.80;80.90
4548;DHT22;2286;51.570;7.090;2023-06-19T09:57:32;24.80;80.60
4548;DHT22;2286;51.570;7.090;2023-06-19T10:00:03;24.80;77.90
4548;DHT22;2286;51.570;7.090;2023-06-19T10:02:36;25.00;78.40
4548;DHT22;2286;51.570;7.090;2023-06-19T10:05:05;25.20;70.50
4548;DHT22;2286;51.570;7.090;2023-06-19T10:07:35;25.20;65.60
4548;DHT22;2286;51.570;7.090;2023-06-19T10:10:05;25.10;62.70
4548;DHT22;2286;51.570;7.090;2023-06-19T10:12:41;25.30;61.70
4548;DHT22;2286;51.570;7.090;2023-06-19T10:15:15;25.20;59.50
4548;DHT22;2286;51.570;7.090;2023-06-19T10:17:47;25.30;59.90
4548;DHT22;2286;51.570;7.090;2023-06-19T10:20:25;25.30;57.60
4548;DHT22;2286;51.570;7.090;2023-06-19T10:23:05;25.20;57.90
4548;DHT22;2286;51.570;7.090;2023-06-19T10:25:35;25.80;57.20
4548;DHT22;2286;51.570;7.090;2023-06-19T10:28:03;26.30;54.50
4548;DHT22;2286;51.570;7.090;2023-06-19T10:30:32;26.80;51.20
4548;DHT22;2286;51.570;7.090;2023-06-19T10:33:00;26.60;48.70
4548;DHT22;2286;51.570;7.090;2023-06-19T10:35:37;26.70;48.00
4548;DHT22;2286;51.570;7.090;2023-06-19T10:38:05;26.90;62.40
4548;DHT22;2286;51.570;7.090;2023-06-19T10:40:35;27.70;45.00
4548;DHT22;2286;51.570;7.090;2023-06-19T10:43:03;28.20;41.20
4548;DHT22;2286;51.570;7.090;2023-06-19T10:45:30;28.70;56.90
4548;DHT22;2286;51.570;7.090;2023-06-19T10:48:00;29.40;40.20
4548;DHT22;2286;51.570;7.090;2023-06-19T10:50:28;30.10;37.40
4548;DHT22;2286;51.570;7.090;2023-06-19T10:52:57;28.80;31.00
4548;DHT22;2286;51.570;7.090;2023-06-19T10:55:24;27.60;29.70
4548;DHT22;2286;51.570;7.090;2023-06-19T10:57:53;28.40;30.10
4548;DHT22;2286;51.570;7.090;2023-06-19T11:00:24;28.70;30.00
4548;DHT22;2286;51.570;7.090;2023-06-19T11:02:52;27.60;27.30
4548;DHT22;2286;51.570;7.090;2023-06-19T11:05:20;28.00;43.40
4548;DHT22;2286;51.570;7.090;2023-06-19T11:07:52;28.20;28.10
4548;DHT22;2286;51.570;7.090;2023-06-19T11:10:20;28.60;28.80
4548;DHT22;2286;51.570;7.090;2023-06-19T11:12:48;29.70;31.20
4548;DHT22;2286;51.570;7.090;2023-06-19T11:15:17;30.40;30.60
4548;DHT22;2286;51.570;7.090;2023-06-19T11:17:44;31.30;31.30
4548;DHT22;2286;51.570;7.090;2023-06-19T11:20:12;31.10;29.40
4548;DHT22;2286;51.570;7.090;2023-06-19T11:22:41;31.00;28.30
4548;DHT22;2286;51.570;7.090;2023-06-19T11:25:10;30.60;25.40
4548;DHT22;2286;51.570;7.090;2023-06-19T11:27:38;29.90;23.60
4548;DHT22;2286;51.570;7.090;2023-06-19T11:30:07;29.30;22.10
4548;DHT22;2286;51.570;7.090;2023-06-19T11:32:37;28.90;20.90
4548;DHT22;2286;51.570;7.090;2023-06-19T11:35:09;28.60;19.90
4548;DHT22;2286;51.570;7.090;2023-06-19T11:37:39;28.70;21.00
4548;DHT22;2286;51.570;7.090;2023-06-19T11:40:07;29.10;21.30
4548;DHT22;2286;51.570;7.090;2023-06-19T11:42:47;30.20;23.20
4548;DHT22;2286;51.570;7.090;2023-06-19T11:45:15;31.80;25.80
4548;DHT22;2286;51.570;7.090;2023-06-19T11:47:47;32.00;25.60
4548;DHT22;2286;51.570;7.090;2023-06-19T11:50:15;32.70;25.70
4548;DHT22;2286;51.570;7.090;2023-06-19T11:52:43;32.40;24.30
4548;DHT22;2286;51.570;7.090;2023-06-19T11:55:12;32.00;21.80
4548;DHT22;2286;51.570;7.090;2023-06-19T11:57:39;31.30;19.50
4548;DHT22;2286;51.570;7.090;2023-06-19T12:00:14;31.60;21.30
4548;DHT22;2286;51.570;7.090;2023-06-19T12:02:41;31.70;20.40
4548;DHT22;2286;51.570;7.090;2023-06-19T12:05:10;31.30;18.40
4548;DHT22;2286;51.570;7.090;2023-06-19T12:07:37;31.70;19.80
4548;DHT22;2286;51.570;7.090;2023-06-19T12:10:05;32.00;19.70
4548;DHT22;2286;51.570;7.090;2023-06-19T12:12:36;32.00;19.10
4548;DHT22;2286;51.570;7.090;2023-06-19T12:15:05;30.70;16.40
4548;DHT22;2286;51.570;7.090;2023-06-19T12:17:33;31.20;16.50
4548;DHT22;2286;51.570;7.090;2023-06-19T12:20:00;31.40;17.40
4548;DHT22;2286;51.570;7.090;2023-06-19T12:22:32;32.00;18.60
4548;DHT22;2286;51.570;7.090;2023-06-19T12:24:59;33.40;22.40
4548;DHT22;2286;51.570;7.090;2023-06-19T12:27:27;34.00;21.60
4548;DHT22;2286;51.570;7.090;2023-06-19T12:29:54;34.00;21.20
4548;DHT22;2286;51.570;7.090;2023-06-19T12:32:21;34.20;21.40
4548;DHT22;2286;51.570;7.090;2023-06-19T12:34:49;33.70;20.10
4548;DHT22;2286;51.570;7.090;2023-06-19T12:37:19;34.70;21.30
4548;DHT22;2286;51.570;7.090;2023-06-19T12:39:50;35.20;21.80
4548;DHT22;2286;51.570;7.090;2023-06-19T12:42:17;34.60;19.00
4548;DHT22;2286;51.570;7.090;2023-06-19T12:44:45;34.80;19.40
4548;DHT22;2286;51.570;7.090;2023-06-19T12:47:12;35.50;20.40
4548;DHT22;2286;51.570;7.090;2023-06-19T12:49:40;34.50;16.70
4548;DHT22;2286;51.570;7.090;2023-06-19T12:52:08;33.40;13.60
4548;DHT22;2286;51.570;7.090;2023-06-19T12:54:35;32.50;10.80
4548;DHT22;2286;51.570;7.090;2023-06-19T12:57:04;32.60;11.50
4548;DHT22;2286;51.570;7.090;2023-06-19T12:59:32;32.50;11.40
4548;DHT22;2286;51.570;7.090;2023-06-19T13:01:59;32.40;10.30
4548;DHT22;2286;51.570;7.090;2023-06-19T13:04:26;31.80;8.60
4548;DHT22;2286;51.570;7.090;2023-06-19T13:06:53;31.40;7.30
4548;DHT22;2286;51.570;7.090;2023-06-19T13:09:20;31.50;7.40
4548;DHT22;2286;51.570;7.090;2023-06-19T13:11:47;31.40;7.10
4548;DHT22;2286;51.570;7.090;2023-06-19T13:14:16;31.40;7.10
4548;DHT22;2286;51.570;7.090;2023-06-19T13:16:43;31.60;8.10
4548;DHT22;2286;51.570;7.090;2023-06-19T13:19:10;32.50;10.20
4548;DHT22;2286;51.570;7.090;2023-06-19T13:21:38;33.50;12.40
4548;DHT22;2286;51.570;7.090;2023-06-19T13:24:05;34.10;12.90
4548;DHT22;2286;51.570;7.090;2023-06-19T13:26:32;34.80;14.50
4548;DHT22;2286;51.570;7.090;2023-06-19T13:28:59;35.30;15.20
4548;DHT22;2286;51.570;7.090;2023-06-19T13:31:28;36.00;16.90
4548;DHT22;2286;51.570;7.090;2023-06-19T13:33:55;36.90;19.80
4548;DHT22;2286;51.570;7.090;2023-06-19T13:36:22;38.00;22.10
4548;DHT22;2286;51.570;7.090;2023-06-19T13:38:52;37.90;31.80
4548;DHT22;2286;51.570;7.090;2023-06-19T13:41:19;36.40;13.00
4548;DHT22;2286;51.570;7.090;2023-06-19T13:43:49;36.00;12.40
4548;DHT22;2286;51.570;7.090;2023-06-19T13:46:16;36.50;12.80
4548;DHT22;2286;51.570;7.090;2023-06-19T13:48:45;36.50;13.00
4548;DHT22;2286;51.570;7.090;2023-06-19T13:51:16;36.60;12.70
4548;DHT22;2286;51.570;7.090;2023-06-19T13:53:43;37.80;15.70
4548;DHT22;2286;51.570;7.090;2023-06-19T13:56:11;39.00;18.90
4548;DHT22;2286;51.570;7.090;2023-06-19T13:58:38;38.90;16.80
4548;DHT22;2286;51.570;7.090;2023-06-19T14:01:05;39.10;16.40
4548;DHT22;2286;51.570;7.090;2023-06-19T14:03:32;39.80;18.10
4548;DHT22;2286;51.570;7.090;2023-06-19T14:06:01;40.70;19.70
4548;DHT22;2286;51.570;7.090;2023-06-19T14:08:28;40.70;19.00
4548;DHT22;2286;51.570;7.090;2023-06-19T14:10:55;40.20;15.60
4548;DHT22;2286;51.570;7.090;2023-06-19T14:13:23;39.70;14.50
4548;DHT22;2286;51.570;7.090;2023-06-19T14:15:50;40.40;16.40
4548;DHT22;2286;51.570;7.090;2023-06-19T14:18:18;40.60;15.70
4548;DHT22;2286;51.570;7.090;2023-06-19T14:20:45;40.40;14.40
4548;DHT22;2286;51.570;7.090;2023-06-19T14:23:14;40.50;26.30
4548;DHT22;2286;51.570;7.090;2023-06-19T14:25:41;40.90;14.70
4548;DHT22;2286;51.570;7.090;2023-06-19T14:28:08;39.90;11.10
4548;DHT22;2286;51.570;7.090;2023-06-19T14:30:35;40.20;18.40
4548;DHT22;2286;51.570;7.090;2023-06-19T14:33:03;39.80;10.20
4548;DHT22;2286;51.570;7.090;2023-06-19T14:35:30;40.40;12.60
4548;DHT22;2286;51.570;7.090;2023-06-19T14:37:57;39.60;8.00
4548;DHT22;2286;51.570;7.090;2023-06-19T14:40:25;40.30;12.00
4548;DHT22;2286;51.570;7.090;2023-06-19T14:42:52;41.90;15.80
4548;DHT22;2286;51.570;7.090;2023-06-19T14:45:20;42.60;17.40
4548;DHT22;2286;51.570;7.090;2023-06-19T14:47:47;42.80;16.50
4548;DHT22;2286;51.570;7.090;2023-06-19T14:50:14;42.20;14.60
4548;DHT22;2286;51.570;7.090;2023-06-19T14:52:42;41.20;11.10
4548;DHT22;2286;51.570;7.090;2023-06-19T14:55:10;41.40;11.00
4548;DHT22;2286;51.570;7.090;2023-06-19T14:57:39;41.30;11.10
4548;DHT22;2286;51.570;7.090;2023-06-19T15:00:07;41.50;12.10
4548;DHT22;2286;51.570;7.090;2023-06-19T15:02:34;41.70;11.90
4548;DHT22;2286;51.570;7.090;2023-06-19T15:05:01;42.50;14.70
4548;DHT22;2286;51.570;7.090;2023-06-19T15:07:28;42.90;14.90
4548;DHT22;2286;51.570;7.090;2023-06-19T15:09:56;43.60;16.90
4548;DHT22;2286;51.570;7.090;2023-06-19T15:12:23;44.40;16.80
4548;DHT22;2286;51.570;7.090;2023-06-19T15:14:51;41.80;8.10
4548;DHT22;2286;51.570;7.090;2023-06-19T15:17:18;42.30;10.50
4548;DHT22;2286;51.570;7.090;2023-06-19T15:19:46;41.80;8.10
4548;DHT22;2286;51.570;7.090;2023-06-19T15:22:13;43.20;12.70
4548;DHT22;2286;51.570;7.090;2023-06-19T15:24:40;40.90;4.20
4548;DHT22;2286;51.570;7.090;2023-06-19T15:27:07;39.60;1.40
4548;DHT22;2286;51.570;7.090;2023-06-19T15:29:34;39.00;1.00
4548;DHT22;2286;51.570;7.090;2023-06-19T15:32:04;39.10;1.00
4548;DHT22;2286;51.570;7.090;2023-06-19T15:34:31;38.30;1.00
4548;DHT22;2286;51.570;7.090;2023-06-19T15:36:59;37.40;1.00
4548;DHT22;2286;51.570;7.090;2023-06-19T15:39:26;39.20;1.10
4548;DHT22;2286;51.570;7.090;2023-06-19T15:41:53;41.20;7.20
4548;DHT22;2286;51.570;7.090;2023-06-19T15:44:20;42.10;8.50
4548;DHT22;2286;51.570;7.090;2023-06-19T15:46:47;42.70;9.90
4548;DHT22;2286;51.570;7.090;2023-06-19T15:49:16;42.50;9.00
4548;DHT22;2286;51.570;7.090;2023-06-19T15:51:43;42.30;7.40
4548;DHT22;2286;51.570;7.090;2023-06-19T15:54:10;39.90;1.00
4548;DHT22;2286;51.570;7.090;2023-06-19T15:56:38;38.50;1.00
4548;DHT22;2286;51.570;7.090;2023-06-19T15:59:08;38.20;1.00
4548;DHT22;2286;51.570;7.090;2023-06-19T16:01:35;38.20;1.00
4548;DHT22;2286;51.570;7.090;2023-06-19T16:04:02;37.30;1.00
4548;DHT22;2286;51.570;7.090;2023-06-19T16:06:31;38.00;1.00
4548;DHT22;2286;51.570;7.090;2023-06-19T16:08:58;39.10;1.00